Virtual Norwegian is not affiliated with Norwegian Air Shuttle in any way.
If you are looking for the real "Norwegian", or you wish to book Norwegian flights, please visit Norwegian.com


We use cookies to ensure you get the best experience on our website.   ACCEPT

HEGN - HRG - Hurghada (Hurghada Intl)

General Info Alternate Airport
ICAO: HEGN Elevation: 52 ft ICAO: HESH
IATA: HRG Country: Egypt IATA: SSH
City: Hurghada Charts: Log in to view charts City: Sharm El Sheikh
Name: Hurghada Intl Hub: No Name Sharm El Sheikh Intl
General Info
ICAO: HEGN
IATA: HRG
City: Hurghada
Name: Hurghada Intl
Elevation: 52 ft
Country: Egypt
Charts: Log in to view charts
Hub: No
 
Alternate Airport
ICAO: HESH
IATA: SSH
City: Sharm El Sheikh
Name: Sharm El Sheikh Intl

Weather
180500Z 29010KT CAVOK 26/12 Q1014 NOSIG
Weather
180500Z 29010KT CAVOK 26/12 Q1014 NOSIG

Runway Info
16
Length ILS/LOC Heading
4000 m N/A 165
34
Length ILS/LOC Course
4000 m 110.30 341

NOTAMs
NOTAMs currently unavailable.
NOTAMs
NOTAMs currently unavailable

Route map
Airport
Airport (hub)